Time;durP1;ratioP1;P1;durP2;ratioP2;P2;SDS_P1;SDS_P2;PMS_P1;PMS_P2;Temp;Humidity;BMP_temperature;BMP_pressure;BME280_temperature;BME280_humidity;BME280_pressure;Samples;Min_cycle;Max_cycle;Signal;HPM_P1;HPM_P2
2021/09/23 05:49:59;;;;;;;14.07;2.55;;;;;;;19.24;65.13;101113.75;6050121;23;20047;-93
2021/09/23 06:05:23;;;;;;;9.75;2.00;;;;;;;19.34;66.01;101109.22;5345548;23;20513;-96
2021/09/23 06:07:49;;;;;;;10.27;2.22;;;;;;;19.38;66.04;101113.28;4957843;28;20082;-92
2021/09/23 06:10:15;;;;;;;6.50;1.35;;;;;;;19.55;65.31;101105.50;4950808;29;20430;-95
2021/09/23 06:12:41;;;;;;;10.60;1.75;;;;;;;19.51;65.61;101104.97;4955686;29;20028;-94
2021/09/23 06:15:07;;;;;;;11.15;1.70;;;;;;;19.56;65.68;101108.03;4960503;29;20028;-96
2021/09/23 06:17:33;;;;;;;6.40;1.67;;;;;;;19.62;65.37;101102.13;4956709;29;20035;-94
2021/09/23 06:19:58;;;;;;;10.55;1.95;;;;;;;19.59;65.67;101097.09;4961956;29;20023;-93
2021/09/23 06:30:12;;;;;;;9.68;2.17;;;;;;;19.70;65.91;101084.56;6033906;23;20013;-96
2021/09/23 06:37:47;;;;;;;12.02;1.45;;;;;;;19.85;65.82;101082.31;5288904;23;20084;-96
2021/09/23 06:40:12;;;;;;;8.02;1.70;;;;;;;19.97;65.76;101099.75;4991817;28;20034;-96
2021/09/23 06:42:38;;;;;;;7.70;2.30;;;;;;;20.03;65.78;101101.84;4986424;28;20054;-87
2021/09/23 07:13:37;;;;;;;12.07;1.80;;;;;;;20.39;65.55;101073.38;6066765;23;20013;-95
2021/09/23 07:28:59;;;;;;;17.40;2.50;;;;;;;20.68;65.49;101092.84;5512024;23;20050;-96
2021/09/23 07:31:25;;;;;;;12.70;1.90;;;;;;;20.49;66.17;101093.81;4976241;28;20038;-96
2021/09/23 07:33:51;;;;;;;16.35;2.65;;;;;;;20.63;65.60;101098.63;4987822;28;20030;-96
2021/09/23 07:36:17;;;;;;;12.13;2.58;;;;;;;20.59;66.14;101095.41;4992017;28;20360;-96
2021/09/23 07:38:43;;;;;;;10.52;1.80;;;;;;;20.51;66.02;101098.00;4997421;28;20432;-96
2021/09/23 07:41:09;;;;;;;11.95;2.10;;;;;;;20.75;65.56;101097.44;4997434;28;20030;-96
2021/09/23 07:43:34;;;;;;;11.82;1.92;;;;;;;20.79;65.41;101089.94;5000412;28;20030;-95
2021/09/23 07:46:00;;;;;;;6.93;1.92;;;;;;;20.52;66.39;101088.19;5003742;28;20036;-96
2021/09/23 07:50:52;;;;;;;8.07;1.75;;;;;;;20.63;66.21;101074.63;4967457;29;20043;-96
2021/09/23 07:53:18;;;;;;;12.98;1.60;;;;;;;20.80;65.94;101076.44;4969139;28;20027;-96
2021/09/23 07:55:44;;;;;;;9.95;2.55;;;;;;;20.65;66.67;101090.47;4967261;28;20465;-96
2021/09/23 07:58:09;;;;;;;10.32;1.52;;;;;;;20.74;65.98;101085.06;4985863;28;20031;-96
2021/09/23 08:00:34;;;;;;;9.70;1.55;;;;;;;20.78;65.79;101093.59;4986507;28;20033;-96
2021/09/23 08:03:00;;;;;;;10.52;1.95;;;;;;;20.86;65.59;101083.00;4985087;28;20101;-96
2021/09/23 08:05:29;;;;;;;19.92;2.58;;;;;;;21.09;65.14;101090.47;4995347;28;20378;-96
2021/09/23 08:07:58;;;;;;;13.63;2.40;;;;;;;21.07;65.03;101087.13;4983906;28;20114;-96
2021/09/23 08:10:24;;;;;;;13.07;1.70;;;;;;;20.91;65.51;101087.84;4982714;28;20086;-96
2021/09/23 08:12:50;;;;;;;10.23;2.00;;;;;;;20.42;66.93;101077.59;4981701;28;20058;-95
2021/09/23 08:15:16;;;;;;;8.95;2.30;;;;;;;20.64;66.41;101083.47;4978504;28;20023;-95
2021/09/23 08:17:41;;;;;;;8.40;1.70;;;;;;;21.04;65.31;101090.13;4983177;28;20026;-95
2021/09/23 08:20:07;;;;;;;4.95;1.13;;;;;;;21.02;65.72;101100.13;4979248;28;20046;-94
2021/09/23 08:22:33;;;;;;;12.45;2.35;;;;;;;21.29;64.67;101099.97;4978064;28;20287;-96
2021/09/23 08:24:59;;;;;;;12.57;1.50;;;;;;;21.29;64.67;101101.81;4980825;28;20266;-96
2021/09/23 08:27:24;;;;;;;11.20;2.05;;;;;;;21.15;65.33;101103.22;4977549;28;20023;-96
2021/09/23 08:29:50;;;;;;;8.50;1.52;;;;;;;21.10;65.47;101095.66;4978135;28;20023;-95
2021/09/23 08:32:19;;;;;;;8.40;1.42;;;;;;;21.22;65.05;101108.78;4985017;28;20050;-95
2021/09/23 08:34:48;;;;;;;10.02;2.13;;;;;;;21.20;65.46;101103.59;4984742;28;20065;-95
2021/09/23 08:37:15;;;;;;;9.43;1.15;;;;;;;21.23;65.17;101100.63;4972556;28;20081;-96
2021/09/23 08:39:40;;;;;;;8.52;1.52;;;;;;;21.27;65.63;101096.63;4981348;28;20026;-96
2021/09/23 08:42:05;;;;;;;4.63;1.10;;;;;;;21.66;64.67;101104.19;4982075;28;20030;-96
2021/09/23 08:44:32;;;;;;;11.18;2.42;;;;;;;21.28;65.05;101094.78;4986288;28;20441;-96
2021/09/23 08:46:57;;;;;;;8.38;1.45;;;;;;;21.41;65.27;101100.56;4978904;28;20066;-96
2021/09/23 08:49:35;;;;;;;10.88;1.40;;;;;;;21.18;65.56;101106.41;5007585;28;20034;-96
2021/09/23 08:52:01;;;;;;;9.25;1.80;;;;;;;21.41;65.70;101102.41;4995436;28;20042;-95
2021/09/23 08:54:26;;;;;;;5.85;1.40;;;;;;;21.39;65.52;101108.72;5004982;28;20026;-96
2021/09/23 08:56:51;;;;;;;5.45;1.50;;;;;;;21.69;64.62;101106.56;5005968;28;20034;-96
2021/09/23 08:59:17;;;;;;;8.45;1.52;;;;;;;21.79;64.47;101109.94;5005078;28;20015;-96
2021/09/23 09:01:51;;;;;;;5.20;1.00;;;;;;;21.42;65.67;101112.91;4991277;28;20030;-96
2021/09/23 09:04:31;;;;;;;4.18;1.05;;;;;;;21.52;65.34;101104.81;5164059;23;20038;-96
2021/09/23 09:07:01;;;;;;;5.55;1.30;;;;;;;21.39;65.52;101100.72;5006020;28;20014;-96
2021/09/23 09:09:27;;;;;;;7.60;1.10;;;;;;;21.28;65.61;101103.63;5010068;28;20026;-96
2021/09/23 09:11:55;;;;;;;3.63;0.70;;;;;;;21.72;64.58;101103.59;5012128;28;20057;-96
2021/09/23 09:14:28;;;;;;;8.35;1.02;;;;;;;21.68;65.00;101102.25;5100583;23;20017;-96
2021/09/23 09:16:59;;;;;;;12.55;1.33;;;;;;;21.54;65.71;101105.47;5135633;23;20031;-96
2021/09/23 09:19:24;;;;;;;4.20;0.90;;;;;;;21.48;65.30;101093.59;5064091;23;20129;-96
2021/09/23 09:21:50;;;;;;;4.35;1.88;;;;;;;20.91;67.55;101104.72;4992129;28;20027;-96
2021/09/23 09:24:18;;;;;;;6.55;1.35;;;;;;;21.25;66.88;101090.59;4988834;28;20021;-96
2021/09/23 09:26:44;;;;;;;13.43;1.50;;;;;;;21.25;66.67;101095.94;5001705;28;20070;-96
2021/09/23 09:29:17;;;;;;;7.68;1.98;;;;;;;20.90;67.97;101091.53;5011006;28;20046;-95
2021/09/23 09:34:25;;;;;;;7.78;1.42;;;;;;;21.32;66.96;101088.97;5213963;23;20108;-96
2021/09/23 09:36:52;;;;;;;7.45;1.42;;;;;;;21.24;67.13;101086.25;5101388;23;20133;-96
2021/09/23 09:39:21;;;;;;;6.00;1.30;;;;;;;21.25;67.63;101082.59;5004035;28;20030;-96
2021/09/23 09:41:50;;;;;;;8.75;1.88;;;;;;;21.32;67.79;101109.50;5004523;28;20026;-96
2021/09/23 09:44:17;;;;;;;7.20;1.92;;;;;;;21.61;66.58;101095.00;5008533;28;20038;-96
2021/09/23 09:46:49;;;;;;;7.18;1.88;;;;;;;21.48;67.08;101090.91;5015677;28;20034;-96
2021/09/23 09:49:15;;;;;;;5.95;1.55;;;;;;;21.70;66.67;101100.25;5007526;28;20022;-96
2021/09/23 09:51:52;;;;;;;14.82;2.00;;;;;;;21.57;66.77;101097.16;5044025;23;20080;-96
2021/09/23 09:54:19;;;;;;;4.57;1.15;;;;;;;21.55;67.29;101108.00;5022503;28;20017;-96
2021/09/23 09:56:57;;;;;;;8.18;2.28;;;;;;;21.83;66.47;101106.97;5160471;23;20089;-95
2021/09/23 10:01:59;;;;;;;5.70;1.10;;;;;;;21.61;66.69;101095.84;5432197;23;20028;-96
2021/09/23 10:04:28;;;;;;;5.20;1.30;;;;;;;21.73;66.89;101093.72;5009266;23;20037;-96
2021/09/23 10:06:57;;;;;;;3.85;1.10;;;;;;;21.53;67.32;101098.47;5001772;28;20037;-96
2021/09/23 10:09:23;;;;;;;7.25;1.63;;;;;;;21.25;68.01;101079.06;5008280;28;20077;-96
2021/09/23 10:11:50;;;;;;;4.43;1.05;;;;;;;21.72;66.96;101087.56;5011376;28;20039;-96
2021/09/23 10:14:17;;;;;;;9.68;1.20;;;;;;;21.93;66.09;101084.44;5012825;28;20034;-94
2021/09/23 10:16:43;;;;;;;4.43;0.73;;;;;;;21.99;65.93;101081.13;5011137;28;20054;-96
2021/09/23 10:19:09;;;;;;;7.80;1.83;;;;;;;21.99;66.15;101072.25;5012761;28;20033;-96
2021/09/23 10:21:39;;;;;;;5.43;1.27;;;;;;;22.23;65.55;101073.31;5337142;23;20046;-96
2021/09/23 10:24:07;;;;;;;5.57;1.58;;;;;;;22.18;65.38;101074.66;5035066;28;20018;-96
2021/09/23 10:26:35;;;;;;;13.65;2.50;;;;;;;21.89;66.47;101069.72;5022112;23;20138;-96
2021/09/23 10:29:03;;;;;;;5.18;1.25;;;;;;;22.16;66.03;101068.63;5224042;23;20081;-96
2021/09/23 10:31:31;;;;;;;8.88;1.83;;;;;;;22.16;66.01;101065.97;5251717;23;20097;-96
2021/09/23 10:33:59;;;;;;;8.63;2.20;;;;;;;22.40;65.09;101053.66;4998192;28;20030;-96
2021/09/23 10:36:41;;;;;;;13.52;2.28;;;;;;;22.14;66.43;101069.81;5078700;23;20058;-96
2021/09/23 10:39:09;;;;;;;6.85;1.80;;;;;;;22.08;66.77;101051.75;5033483;23;20133;-96
2021/09/23 10:46:44;;;;;;;;;;;;;;;22.37;65.80;101052.16;5195825;23;20078;-96
2021/09/23 10:49:09;;;;;;;7.05;1.35;;;;;;;22.30;66.12;101042.28;4994772;28;19973;-96
2021/09/23 10:51:35;;;;;;;6.18;2.10;;;;;;;22.44;65.78;101038.94;5075789;23;20850;-96
2021/09/23 11:04:26;;;;;;;4.50;0.88;;;;;;;22.68;65.32;101030.06;5321156;23;20090;-95
2021/09/23 11:12:29;;;;;;;4.00;0.43;;;;;;;23.17;63.69;101029.19;5755836;23;20030;-96
2021/09/23 11:17:22;;;;;;;3.85;1.05;;;;;;;23.34;64.03;101029.94;5126474;23;21018;-96
2021/09/23 11:20:04;;;;;;;2.75;0.50;;;;;;;23.35;63.57;101026.28;4997382;28;20082;-96
2021/09/23 11:22:34;;;;;;;3.70;0.63;;;;;;;23.50;63.97;101029.91;5115907;23;20034;-96
2021/09/23 11:25:03;;;;;;;8.02;0.50;;;;;;;23.70;63.10;101024.13;4990616;28;20027;-96
2021/09/23 11:27:28;;;;;;;4.50;1.23;;;;;;;23.79;62.22;101015.03;5002054;28;20022;-96
2021/09/23 11:29:54;;;;;;;2.00;0.80;;;;;;;23.53;62.27;101020.69;5013699;28;20041;-96
2021/09/23 11:32:20;;;;;;;2.08;0.57;;;;;;;23.70;62.77;101019.59;5007543;28;20042;-96
2021/09/23 11:34:56;;;;;;;2.60;0.93;;;;;;;23.92;61.84;101028.72;5006948;28;20049;-96
2021/09/23 11:37:31;;;;;;;4.32;1.05;;;;;;;23.63;62.63;101010.56;5005284;28;20105;-96
2021/09/23 11:40:00;;;;;;;4.18;0.60;;;;;;;23.56;62.54;101004.25;5006808;28;20037;-96
2021/09/23 11:42:36;;;;;;;2.95;0.70;;;;;;;24.08;61.36;101003.63;5007562;28;20026;-96
2021/09/23 11:45:10;;;;;;;2.33;0.93;;;;;;;24.19;60.77;101012.28;5011689;28;20054;-96
2021/09/23 11:47:43;;;;;;;3.05;0.90;;;;;;;23.58;61.74;100999.56;5004312;28;20408;-96
2021/09/23 11:50:11;;;;;;;2.40;0.95;;;;;;;24.42;60.61;101007.75;5010796;28;20038;-96
2021/09/23 11:52:37;;;;;;;2.47;0.85;;;;;;;24.71;59.19;101003.50;5245264;23;20065;-96
2021/09/23 11:55:06;;;;;;;2.00;0.90;;;;;;;24.92;58.44;100998.25;5070901;23;20041;-96
2021/09/23 11:57:33;;;;;;;1.40;0.80;;;;;;;24.97;58.49;100994.19;5117578;23;20045;-95
2021/09/23 12:00:00;;;;;;;2.58;0.63;;;;;;;24.75;58.57;101007.47;5025695;28;20468;-96
2021/09/23 12:02:26;;;;;;;2.10;0.60;;;;;;;25.13;58.41;100993.97;5027190;28;20030;-96
2021/09/23 12:04:56;;;;;;;4.95;1.15;;;;;;;25.30;57.80;100987.44;5029238;28;20077;-96
2021/09/23 12:07:22;;;;;;;3.00;1.30;;;;;;;25.09;57.33;100976.56;5017728;28;20010;-96
2021/09/23 12:12:34;;;;;;;1.67;0.90;;;;;;;25.27;57.57;100995.84;5256837;23;20321;-96
2021/09/23 12:14:59;;;;;;;3.08;1.10;;;;;;;25.23;56.83;100989.19;4966765;29;20385;-96
2021/09/23 12:17:26;;;;;;;3.60;1.08;;;;;;;25.61;56.49;100978.31;4987703;28;20055;-95
2021/09/23 12:19:56;;;;;;;2.20;0.93;;;;;;;25.43;57.00;100980.53;4990268;28;20038;-96
2021/09/23 12:22:36;;;;;;;1.67;1.13;;;;;;;26.89;54.75;100973.03;5017621;23;20094;-96
2021/09/23 12:25:11;;;;;;;2.28;0.88;;;;;;;26.59;53.48;100969.75;4997783;28;20007;-96
2021/09/23 12:27:38;;;;;;;1.83;0.82;;;;;;;26.78;52.82;100977.13;5014992;28;20022;-96
2021/09/23 12:32:43;;;;;;;17.35;2.47;;;;;;;26.80;52.80;100968.88;5775406;23;20050;-96
2021/09/23 12:38:09;;;;;;;7.60;2.05;;;;;;;27.09;52.40;100974.00;4970871;28;20031;-96
2021/09/23 12:40:35;;;;;;;3.40;1.30;;;;;;;27.33;51.01;100976.41;4975311;28;20107;-96
2021/09/23 12:45:32;;;;;;;1.17;1.02;;;;;;;28.34;49.84;100954.84;5522117;23;20047;-96
2021/09/23 12:53:18;;;;;;;2.22;1.20;;;;;;;26.76;50.89;100954.94;5021616;23;20039;-96
2021/09/23 12:55:44;;;;;;;3.00;1.50;;;;;;;28.03;49.78;100961.69;5056875;23;20085;-96
2021/09/23 13:00:40;;;;;;;3.70;1.95;;;;;;;28.18;48.14;100944.47;5009357;28;20065;-96
2021/09/23 13:06:03;;;;;;;7.75;1.60;;;;;;;28.52;45.52;100931.81;5085773;23;20056;-96
2021/09/23 13:13:44;;;;;;;2.97;1.80;;;;;;;29.10;45.83;100929.16;4999596;28;20050;-96
2021/09/23 13:16:13;;;;;;;4.10;2.20;;;;;;;28.99;45.80;100927.94;5270132;23;20010;-96
2021/09/23 13:18:44;;;;;;;2.15;1.80;;;;;;;28.19;47.45;100925.34;5290177;23;20034;-96
2021/09/23 13:21:11;;;;;;;3.95;2.50;;;;;;;27.75;47.61;100934.03;4994754;28;20011;-96
2021/09/23 13:23:44;;;;;;;7.55;2.70;;;;;;;27.93;47.65;100931.59;5059338;23;20047;-96
2021/09/23 13:26:15;;;;;;;2.95;2.00;;;;;;;27.46;48.46;100927.94;4996959;28;20473;-96
2021/09/23 13:28:45;;;;;;;3.87;2.60;;;;;;;27.18;49.44;100944.19;5006751;28;20082;-96
2021/09/23 13:31:14;;;;;;;10.18;3.97;;;;;;;27.23;49.80;100944.41;5001099;28;20338;-96
2021/09/23 13:33:42;;;;;;;4.45;2.67;;;;;;;26.98;50.24;100938.69;5002828;28;20030;-96
2021/09/23 13:36:08;;;;;;;4.63;2.42;;;;;;;27.30;49.57;100954.22;5009193;28;20112;-96
2021/09/23 13:38:35;;;;;;;3.90;2.30;;;;;;;27.39;48.83;100941.41;5002313;28;20030;-96
2021/09/23 13:41:02;;;;;;;4.72;2.78;;;;;;;26.71;50.02;100946.63;5009703;28;20114;-96
2021/09/23 13:43:28;;;;;;;5.13;2.45;;;;;;;26.45;51.36;100949.94;5008190;28;20026;-96
2021/09/23 13:45:54;;;;;;;3.33;2.00;;;;;;;26.74;50.91;100940.00;5005599;28;20476;-92
2021/09/23 13:48:20;;;;;;;5.68;2.63;;;;;;;26.39;51.50;100939.94;4990840;28;20025;-93
2021/09/23 13:50:47;;;;;;;2.75;1.90;;;;;;;26.60;51.77;100936.38;4978276;28;20401;-93
2021/09/23 13:53:13;;;;;;;6.47;2.08;;;;;;;26.30;51.61;100937.41;4992162;28;20465;-93
2021/09/23 13:55:39;;;;;;;4.38;1.58;;;;;;;26.29;51.74;100945.66;4992139;28;20041;-94
2021/09/23 13:58:05;;;;;;;5.80;1.77;;;;;;;26.39;51.48;100942.63;4990653;28;20037;-93
2021/09/23 14:00:32;;;;;;;2.10;1.27;;;;;;;26.50;52.02;100932.16;4992466;28;20037;-93
2021/09/23 14:03:02;;;;;;;5.18;1.50;;;;;;;26.24;52.61;100948.09;4992161;28;20038;-93
2021/09/23 14:05:27;;;;;;;5.15;1.30;;;;;;;26.01;53.13;100959.91;4996129;28;20388;-92
2021/09/23 14:07:53;;;;;;;5.07;1.30;;;;;;;26.30;52.25;100944.63;4996930;28;20102;-92
2021/09/23 14:10:19;;;;;;;4.13;1.40;;;;;;;26.37;52.87;100934.75;4998377;28;20031;-94
2021/09/23 14:12:45;;;;;;;8.23;1.30;;;;;;;26.36;52.85;100935.75;5003637;28;20026;-94
2021/09/23 14:15:12;;;;;;;3.25;0.90;;;;;;;26.62;52.38;100923.56;5001499;28;20026;-94
2021/09/23 14:17:38;;;;;;;3.08;1.15;;;;;;;26.90;51.28;100929.75;5006281;28;20082;-93
2021/09/23 14:20:05;;;;;;;3.13;1.15;;;;;;;26.40;52.39;100930.81;5001886;28;20054;-93
2021/09/23 14:22:31;;;;;;;2.83;1.50;;;;;;;26.11;52.85;100925.44;5000463;28;20496;-94
2021/09/23 14:24:58;;;;;;;2.28;1.15;;;;;;;26.44;51.59;100930.25;5003287;28;20038;-92
2021/09/23 14:27:24;;;;;;;4.10;1.20;;;;;;;26.62;51.03;100912.78;5013711;28;20034;-92
2021/09/23 14:29:49;;;;;;;3.85;1.02;;;;;;;26.56;51.24;100918.94;5017104;28;20018;-94
2021/09/23 14:32:16;;;;;;;3.45;1.15;;;;;;;26.12;52.08;100915.50;5011302;28;20058;-91
2021/09/23 14:34:42;;;;;;;4.28;1.17;;;;;;;26.01;53.15;100926.81;5012297;28;20049;-91
2021/09/23 14:37:08;;;;;;;5.07;1.08;;;;;;;26.20;53.85;100920.72;5013623;28;20046;-93
2021/09/23 14:39:34;;;;;;;7.07;1.27;;;;;;;26.28;52.37;100920.63;5011293;28;20048;-91
2021/09/23 14:42:00;;;;;;;4.78;1.42;;;;;;;25.94;53.47;100913.28;5008427;28;20085;-94
2021/09/23 14:44:25;;;;;;;4.35;1.23;;;;;;;25.94;52.87;100910.59;5010108;28;20066;-92
2021/09/23 14:46:52;;;;;;;5.68;1.67;;;;;;;26.03;53.57;100908.59;5015743;28;20010;-95
2021/09/23 14:49:18;;;;;;;4.43;1.20;;;;;;;25.28;54.89;100906.16;5013711;28;20102;-93
2021/09/23 14:51:43;;;;;;;5.38;1.33;;;;;;;25.67;54.50;100904.94;5017719;28;20136;-93
2021/09/23 14:54:09;;;;;;;2.45;0.95;;;;;;;25.67;54.13;100912.16;5015109;28;20034;-91
2021/09/23 14:56:34;;;;;;;3.90;0.93;;;;;;;25.64;54.14;100909.84;5012562;28;20035;-93
2021/09/23 14:59:00;;;;;;;4.15;0.80;;;;;;;25.28;54.84;100898.09;5013466;28;20082;-93
2021/09/23 15:01:25;;;;;;;3.00;1.30;;;;;;;25.14;55.17;100904.31;5010597;28;20031;-93
2021/09/23 15:03:51;;;;;;;5.30;1.13;;;;;;;25.62;53.70;100901.97;5004520;28;20036;-93
2021/09/23 15:06:17;;;;;;;3.22;0.90;;;;;;;25.51;54.28;100899.78;5012312;28;20010;-92
2021/09/23 15:08:43;;;;;;;3.67;1.20;;;;;;;25.70;54.36;100888.41;5009698;28;20037;-91
2021/09/23 15:11:10;;;;;;;9.00;1.30;;;;;;;25.68;53.85;100901.19;5013922;28;20038;-92
2021/09/23 15:13:35;;;;;;;5.07;1.33;;;;;;;25.56;53.77;100891.97;5010577;28;20030;-93
2021/09/23 15:16:03;;;;;;;3.88;1.00;;;;;;;25.82;53.70;100885.19;5007293;28;20022;-95
2021/09/23 15:18:29;;;;;;;2.25;0.90;;;;;;;26.15;52.70;100884.69;4994970;28;20022;-94
2021/09/23 15:20:56;;;;;;;4.82;1.60;;;;;;;25.97;53.25;100860.94;4995893;28;20030;-92
2021/09/23 15:23:22;;;;;;;6.70;1.48;;;;;;;25.88;53.90;100876.34;4994629;28;20019;-94
2021/09/23 15:25:47;;;;;;;5.43;1.55;;;;;;;25.77;53.77;100876.88;4994297;28;20052;-93
2021/09/23 15:28:12;;;;;;;5.55;1.50;;;;;;;25.81;53.61;100875.44;4994775;28;20023;-93
2021/09/23 15:30:38;;;;;;;4.95;1.33;;;;;;;25.51;53.26;100868.38;4995173;28;20472;-93
2021/09/23 15:33:06;;;;;;;3.00;1.17;;;;;;;25.33;53.44;100874.16;4995673;28;20445;-94
2021/09/23 15:35:32;;;;;;;4.00;1.40;;;;;;;25.43;53.93;100881.09;4995312;28;20037;-92
2021/09/23 15:38:00;;;;;;;6.05;1.25;;;;;;;25.11;54.94;100872.44;4995519;28;20022;-92
2021/09/23 15:40:29;;;;;;;4.22;1.42;;;;;;;24.86;55.68;100874.59;4994140;28;20018;-92
2021/09/23 15:42:55;;;;;;;6.13;1.33;;;;;;;25.25;54.35;100885.03;4995462;28;20109;-93
2021/09/23 15:45:21;;;;;;;4.78;1.73;;;;;;;25.10;54.66;100876.16;4994645;28;20023;-93
2021/09/23 15:47:47;;;;;;;9.68;1.63;;;;;;;24.54;55.65;100893.56;4995409;28;20032;-92
2021/09/23 15:50:16;;;;;;;2.90;1.08;;;;;;;25.10;54.40;100887.72;4995265;28;20426;-93
2021/09/23 15:52:43;;;;;;;5.72;1.35;;;;;;;25.03;54.51;100880.59;4995644;28;20026;-93
2021/09/23 15:55:09;;;;;;;5.53;1.20;;;;;;;25.09;54.47;100879.84;4995602;28;20081;-91
2021/09/23 15:57:34;;;;;;;4.63;1.00;;;;;;;25.04;54.57;100876.88;4994567;28;20069;-95
2021/09/23 16:00:00;;;;;;;4.10;1.20;;;;;;;25.01;54.71;100875.41;4993858;28;20362;-92
2021/09/23 16:02:25;;;;;;;5.40;1.15;;;;;;;25.05;54.97;100875.88;4995083;28;20033;-91
2021/09/23 16:04:51;;;;;;;3.97;1.20;;;;;;;24.92;54.28;100869.31;4995255;28;20037;-92
2021/09/23 16:07:17;;;;;;;8.43;1.40;;;;;;;24.91;54.41;100869.50;4984183;28;20030;-92
2021/09/23 16:09:42;;;;;;;5.35;1.70;;;;;;;24.41;55.97;100877.25;4979522;28;20038;-92
2021/09/23 16:12:07;;;;;;;2.08;1.00;;;;;;;24.18;56.37;100868.44;4991000;28;20023;-93
2021/09/23 16:14:33;;;;;;;4.57;1.02;;;;;;;24.40;55.56;100874.75;4979683;28;20106;-95
2021/09/23 16:16:58;;;;;;;6.57;1.58;;;;;;;24.21;55.21;100873.41;4992742;28;20018;-93
2021/09/23 16:19:24;;;;;;;6.38;1.13;;;;;;;23.93;55.84;100868.63;4983034;28;20033;-93
2021/09/23 16:21:49;;;;;;;2.97;1.10;;;;;;;24.06;55.13;100866.19;4990777;28;20033;-93
2021/09/23 16:24:16;;;;;;;2.17;1.00;;;;;;;24.22;55.33;100873.25;4975129;28;20611;-94
2021/09/23 16:26:41;;;;;;;3.35;1.00;;;;;;;23.50;57.42;100873.59;4975460;28;20385;-94
2021/09/23 16:29:07;;;;;;;5.05;1.55;;;;;;;23.70;57.09;100880.19;4978179;28;20049;-94
2021/09/23 16:31:33;;;;;;;4.03;1.40;;;;;;;23.56;57.62;100871.06;4974895;28;20493;-94
2021/09/23 16:33:59;;;;;;;4.53;1.55;;;;;;;23.16;58.92;100874.81;4982838;28;20026;-94
2021/09/23 16:36:25;;;;;;;6.68;1.48;;;;;;;23.41;58.60;100869.34;4990366;28;20496;-93
2021/09/23 16:38:50;;;;;;;3.88;1.35;;;;;;;23.61;58.27;100878.56;4985776;28;20113;-94
2021/09/23 16:41:16;;;;;;;6.85;1.98;;;;;;;23.61;58.21;100881.25;4979825;28;20108;-95
2021/09/23 16:43:41;;;;;;;6.40;1.88;;;;;;;23.64;58.37;100880.91;4979999;28;20026;-94
2021/09/23 16:46:07;;;;;;;3.85;1.27;;;;;;;23.37;58.75;100876.88;4993991;28;20049;-94
2021/09/23 16:48:32;;;;;;;7.35;1.83;;;;;;;23.52;58.37;100871.63;4989761;28;20022;-93
2021/09/23 16:56:09;;;;;;;4.13;1.98;;;;;;;23.27;59.31;100877.09;5602769;23;20027;-95
2021/09/23 16:58:35;;;;;;;5.88;1.80;;;;;;;23.34;59.20;100879.91;4951228;28;20035;-93
2021/09/23 17:01:00;;;;;;;7.53;1.85;;;;;;;23.10;59.84;100871.00;4958639;29;20035;-96
2021/09/23 17:03:25;;;;;;;4.60;1.50;;;;;;;23.05;59.87;100864.50;4967553;29;20020;-96
2021/09/23 17:05:55;;;;;;;6.78;1.60;;;;;;;22.64;61.28;100862.78;4978488;28;20121;-96
2021/09/23 17:08:22;;;;;;;7.93;1.88;;;;;;;22.47;61.00;100856.66;5047418;23;20045;-96
2021/09/23 17:10:48;;;;;;;7.28;1.80;;;;;;;22.72;60.49;100846.69;5878378;23;20013;-96
2021/09/23 17:13:14;;;;;;;7.95;1.90;;;;;;;22.90;60.10;100849.13;5308380;23;20585;-96
2021/09/23 17:18:27;;;;;;;6.13;2.20;;;;;;;22.71;60.95;100862.91;5515044;23;20059;-95
2021/09/23 17:20:52;;;;;;;8.02;2.13;;;;;;;22.48;61.60;100858.31;4975421;28;20037;-94
2021/09/23 17:23:18;;;;;;;8.90;2.00;;;;;;;22.45;61.81;100847.13;5170250;23;20057;-96
2021/09/23 17:25:51;;;;;;;9.50;2.65;;;;;;;22.56;61.18;100842.25;5058058;23;20413;-96
2021/09/23 17:49:19;;;;;;;7.53;1.67;;;;;;;21.87;63.67;100875.75;3585659;23;20654;-93
2021/09/23 17:51:45;;;;;;;6.50;1.92;;;;;;;21.67;64.29;100873.38;4985244;28;20057;-96
2021/09/23 17:54:10;;;;;;;10.48;1.88;;;;;;;21.70;63.73;100870.41;5172824;23;20021;-96
2021/09/23 20:13:41;;;;;;;3.95;0.85;;;;;;;19.79;67.34;100919.34;5501357;23;20078;-95
2021/09/23 20:16:06;;;;;;;3.20;1.20;;;;;;;19.75;66.97;100907.31;4982459;28;20170;-96
2021/09/23 20:18:32;;;;;;;5.03;2.50;;;;;;;19.63;67.47;100911.19;5064922;23;20154;-96
2021/09/23 20:20:58;;;;;;;7.30;2.95;;;;;;;19.65;67.33;100917.19;5011119;28;20034;-95
2021/09/23 20:23:23;;;;;;;7.10;3.35;;;;;;;19.65;67.51;100922.53;5002321;28;20026;-96
2021/09/23 20:25:49;;;;;;;7.07;4.07;;;;;;;19.57;68.21;100917.13;5021664;28;20081;-96
2021/09/23 20:28:15;;;;;;;8.68;5.00;;;;;;;19.57;67.91;100919.78;5021190;28;20064;-96
2021/09/23 20:33:17;;;;;;;9.68;4.05;;;;;;;19.42;67.70;100904.28;5032638;23;20069;-96
2021/09/23 20:35:43;;;;;;;6.22;3.92;;;;;;;19.45;67.74;100903.16;5022376;28;20485;-96
2021/09/23 20:40:35;;;;;;;5.75;4.10;;;;;;;19.42;67.59;100928.25;4990037;28;19928;-96
2021/09/23 20:43:01;;;;;;;7.07;3.90;;;;;;;19.36;67.77;100918.19;4980653;28;20022;-95
2021/09/23 20:45:29;;;;;;;5.53;4.03;;;;;;;19.40;67.68;100921.41;4981716;28;20109;-96
2021/09/23 20:47:57;;;;;;;5.60;3.05;;;;;;;19.45;67.36;100928.94;4994397;28;20026;-96
2021/09/23 20:50:27;;;;;;;4.85;2.67;;;;;;;19.45;67.27;100932.47;4997891;28;20030;-96
2021/09/23 20:52:53;;;;;;;4.93;3.30;;;;;;;19.37;67.01;100922.56;5006891;28;20037;-96
2021/09/23 20:55:22;;;;;;;4.43;3.13;;;;;;;19.26;66.92;100908.59;4999008;28;20022;-96
2021/09/23 20:57:51;;;;;;;5.88;2.63;;;;;;;19.20;67.57;100910.88;4996517;28;20018;-96
2021/09/23 21:00:17;;;;;;;7.88;2.53;;;;;;;19.19;67.46;100906.53;5006019;28;20179;-96
2021/09/23 21:02:44;;;;;;;6.05;2.63;;;;;;;19.06;67.71;100900.72;5006219;28;20110;-96
2021/09/23 21:05:10;;;;;;;4.28;2.38;;;;;;;19.12;67.76;100913.44;5005155;28;20038;-96
2021/09/23 21:10:35;;;;;;;5.53;2.22;;;;;;;19.08;67.34;100903.25;4970453;23;20062;-96
2021/09/23 21:13:01;;;;;;;4.05;2.28;;;;;;;18.92;68.13;100895.88;4964467;28;20027;-96
2021/09/23 21:15:28;;;;;;;3.60;1.80;;;;;;;18.87;67.87;100893.66;5855947;23;20033;-96
2021/09/23 21:17:53;;;;;;;3.08;2.03;;;;;;;18.83;67.85;100897.59;4997570;28;20497;-95
2021/09/23 21:20:19;;;;;;;5.20;1.98;;;;;;;18.90;68.06;100913.78;4994774;28;20113;-95
2021/09/23 21:22:44;;;;;;;4.05;2.25;;;;;;;18.81;68.81;100904.88;4992388;28;20057;-96
2021/09/23 21:25:10;;;;;;;7.95;3.60;;;;;;;18.89;67.87;100906.81;4991893;28;20398;-96
2021/09/23 21:27:36;;;;;;;6.00;2.58;;;;;;;18.83;67.76;100897.59;4992874;28;20030;-95
2021/09/23 21:30:03;;;;;;;4.85;2.10;;;;;;;18.86;68.12;100907.09;4992349;28;20030;-95
2021/09/23 21:32:28;;;;;;;3.20;1.98;;;;;;;18.79;67.78;100912.13;4991177;28;20026;-96
2021/09/23 21:34:53;;;;;;;3.80;2.05;;;;;;;18.81;67.82;100903.03;4992941;28;20032;-95
2021/09/23 21:37:19;;;;;;;2.03;1.30;;;;;;;18.78;68.31;100910.47;4993682;28;20068;-95
2021/09/23 21:39:44;;;;;;;3.67;1.60;;;;;;;18.79;68.06;100912.13;4992581;28;20022;-96
2021/09/23 21:42:10;;;;;;;6.47;1.90;;;;;;;18.71;68.89;100901.38;4992278;28;20057;-95
2021/09/23 21:44:35;;;;;;;3.58;2.00;;;;;;;18.67;69.09;100900.84;4991637;28;20473;-95
2021/09/23 21:47:01;;;;;;;7.75;2.47;;;;;;;18.66;69.24;100900.97;4991327;28;20027;-96
2021/09/23 21:49:27;;;;;;;3.65;1.48;;;;;;;18.69;68.88;100900.69;4992749;28;20396;-95
2021/09/23 21:51:52;;;;;;;7.38;1.70;;;;;;;18.61;69.10;100902.25;4992241;28;20540;-94
2021/09/23 21:54:18;;;;;;;7.63;1.65;;;;;;;18.55;69.68;100902.81;4992310;28;20026;-95
2021/09/23 21:56:43;;;;;;;8.35;2.50;;;;;;;18.58;69.56;100905.22;4992043;28;20396;-94
2021/09/23 21:59:08;;;;;;;4.07;1.80;;;;;;;18.58;69.01;100902.53;4993150;28;20176;-95
2021/09/23 22:01:34;;;;;;;3.33;1.30;;;;;;;18.50;69.06;100902.41;4991704;28;20050;-94
2021/09/23 22:03:59;;;;;;;5.65;1.48;;;;;;;18.58;69.28;100893.72;4979462;28;20541;-96
2021/09/23 22:06:25;;;;;;;4.05;1.40;;;;;;;18.63;68.51;100900.28;4986606;28;20018;-95
2021/09/23 22:08:54;;;;;;;3.58;1.52;;;;;;;18.57;68.18;100895.53;4992249;28;20026;-95
2021/09/23 22:11:22;;;;;;;2.92;1.05;;;;;;;18.43;69.16;100893.34;4991423;28;20026;-96